createdAt,value
2023-07-18T04:00:27.712Z,91547.53
2023-07-18T04:03:12.713Z,91556.44
2023-07-18T04:05:57.603Z,91545.84
2023-07-18T04:08:42.921Z,91545.84
2023-07-18T04:11:27.788Z,91534.91
2023-07-18T04:14:12.547Z,91549.72
2023-07-18T04:16:57.578Z,91540.94
2023-07-18T04:19:42.459Z,91547.44
2023-07-18T04:22:27.296Z,91553.91
2023-07-18T04:25:12.037Z,91545.97
2023-07-18T04:27:56.881Z,91545.56
2023-07-18T04:30:41.756Z,91542.50
2023-07-18T04:33:26.704Z,91557.31
2023-07-18T04:36:11.676Z,91551.91
2023-07-18T04:38:56.649Z,91544.94
2023-07-18T04:41:54.622Z,91553.97
2023-07-18T04:44:40.494Z,91551.00
2023-07-18T04:47:25.616Z,91560.66
2023-07-18T04:50:10.263Z,91536.34
2023-07-18T04:52:55.132Z,91552.41
2023-07-18T04:55:39.912Z,91544.47
2023-07-18T04:58:24.945Z,91546.44
2023-07-18T05:01:09.850Z,91554.00
2023-07-18T05:03:57.894Z,91545.78
2023-07-18T05:06:43.073Z,91541.19
2023-07-18T05:09:27.885Z,91538.81
2023-07-18T05:12:12.716Z,91546.16
2023-07-18T05:14:57.582Z,91535.22
2023-07-18T05:17:42.410Z,91532.03
2023-07-18T05:20:29.041Z,91519.78
2023-07-18T05:23:15.651Z,91533.44
2023-07-18T05:26:00.519Z,91532.47
2023-07-18T05:28:45.373Z,91524.34
2023-07-18T05:31:30.283Z,91541.13
2023-07-18T05:34:15.036Z,91528.47
2023-07-18T05:36:59.954Z,91524.41
2023-07-18T05:39:44.781Z,91521.31
2023-07-18T05:42:29.636Z,91518.69
2023-07-18T05:45:14.418Z,91524.69
2023-07-18T05:47:59.260Z,91521.94
2023-07-18T05:50:44.056Z,91524.72
2023-07-18T05:53:28.892Z,91517.06
2023-07-18T05:56:13.838Z,91518.22
2023-07-18T05:58:58.738Z,91511.66
2023-07-18T06:01:43.781Z,91507.72
2023-07-18T06:04:28.722Z,91511.72
2023-07-18T06:07:13.672Z,91517.06
2023-07-18T06:09:58.673Z,91514.25
2023-07-18T06:12:43.534Z,91522.47
2023-07-18T06:15:28.513Z,91511.66
2023-07-18T06:18:13.376Z,91515.13
2023-07-18T06:20:58.302Z,91505.38
2023-07-18T06:23:44.650Z,91500.16
2023-07-18T06:26:31.210Z,91507.81
2023-07-18T06:29:16.084Z,91508.56
2023-07-18T06:32:00.748Z,91504.66
2023-07-18T06:34:45.649Z,91501.94
2023-07-18T06:37:30.507Z,91491.50
2023-07-18T06:40:15.441Z,91499.25
2023-07-18T06:43:00.351Z,91499.25
2023-07-18T06:45:45.276Z,91502.41
2023-07-18T06:48:30.143Z,91504.03
2023-07-18T06:51:14.876Z,91497.09
2023-07-18T06:53:59.764Z,91491.03
2023-07-18T06:56:44.624Z,91468.31
2023-07-18T06:59:29.681Z,91485.81
2023-07-18T07:02:14.370Z,91505.53
2023-07-18T07:04:59.388Z,91496.69
2023-07-18T07:07:44.321Z,91491.75
2023-07-18T07:10:29.183Z,91468.59
2023-07-18T07:13:14.201Z,91451.66
2023-07-18T07:15:58.976Z,91450.56
2023-07-18T07:18:43.686Z,91459.75
2023-07-18T07:21:28.536Z,91461.53
2023-07-18T07:24:13.519Z,91471.19
2023-07-18T07:26:58.321Z,91465.81
2023-07-18T07:29:43.255Z,91456.44
2023-07-18T07:32:28.445Z,91449.00
2023-07-18T07:35:13.224Z,91436.25
2023-07-18T07:37:58.182Z,91446.97
2023-07-18T07:40:43.070Z,91451.66
2023-07-18T07:43:28.093Z,91443.97
2023-07-18T07:46:13.133Z,91440.13
2023-07-18T07:48:58.002Z,91423.84
2023-07-18T07:51:42.811Z,91428.94
2023-07-18T07:54:27.767Z,91423.47
2023-07-18T07:57:12.609Z,91411.38
2023-07-18T07:59:57.458Z,91412.94
2023-07-18T08:02:42.558Z,91404.75
2023-07-18T08:05:27.397Z,91388.84
2023-07-18T08:08:12.246Z,91389.47
2023-07-18T08:10:56.975Z,91385.94
2023-07-18T08:13:41.781Z,91392.63
2023-07-18T08:16:26.707Z,91377.75
2023-07-18T08:19:11.407Z,91384.47
2023-07-18T08:21:56.216Z,91376.59
2023-07-18T08:24:41.048Z,91377.84
2023-07-18T08:27:26.044Z,91369.69
2023-07-18T08:30:10.958Z,91373.56
2023-07-18T08:32:56.008Z,91373.56
2023-07-18T08:35:40.786Z,91367.69
2023-07-18T08:38:25.667Z,91363.19
2023-07-18T08:41:10.508Z,91358.63
2023-07-18T08:43:55.620Z,91357.47
2023-07-18T08:46:40.387Z,91348.38
2023-07-18T08:49:25.274Z,91347.22
2023-07-18T08:52:10.243Z,91340.28
2023-07-18T08:54:55.204Z,91337.56
2023-07-18T08:57:40.165Z,91333.94
2023-07-18T09:00:24.997Z,91325.53
2023-07-18T09:03:10.077Z,91326.97
2023-07-18T09:05:54.763Z,91327.16
2023-07-18T09:08:39.770Z,91326.94
2023-07-18T09:11:24.672Z,91318.38
2023-07-18T09:14:09.331Z,91308.16
2023-07-18T09:16:54.381Z,91300.94
2023-07-18T09:19:39.274Z,91302.22
2023-07-18T09:22:24.272Z,91298.69
2023-07-18T09:25:09.144Z,91287.28
2023-07-18T09:27:54.217Z,91286.97
2023-07-18T09:30:39.077Z,91278.50
2023-07-18T09:33:24.035Z,91267.88
2023-07-18T09:36:08.912Z,91268.88
2023-07-18T09:38:53.786Z,91263.13
2023-07-18T09:41:38.689Z,91253.47
2023-07-18T09:44:32.662Z,91256.28
2023-07-18T09:47:18.576Z,91248.41
2023-07-18T09:50:03.540Z,91242.88
2023-07-18T09:52:48.438Z,91248.69
2023-07-18T09:55:33.248Z,91244.50
2023-07-18T09:58:18.145Z,91259.31
2023-07-18T10:01:02.974Z,91237.44
2023-07-18T10:03:47.976Z,91244.88
2023-07-18T10:06:32.688Z,91230.38
2023-07-18T10:09:17.659Z,91225.22
2023-07-18T10:12:02.435Z,91217.41
2023-07-18T10:14:47.353Z,91221.38
2023-07-18T10:17:32.270Z,91212.75
2023-07-18T10:20:16.967Z,91216.41
2023-07-18T10:23:01.854Z,91205.91
2023-07-18T10:25:46.688Z,91199.34
2023-07-18T10:28:31.671Z,91193.25
2023-07-18T10:31:16.583Z,91195.44
2023-07-18T10:34:01.462Z,91187.38
2023-07-18T10:36:46.342Z,91181.72
2023-07-18T10:39:31.240Z,91177.75
2023-07-18T10:42:16.034Z,91177.00
2023-07-18T10:45:00.964Z,91164.34
2023-07-18T10:47:45.969Z,91162.75
2023-07-18T10:50:30.874Z,91153.34
2023-07-18T10:53:15.734Z,91146.91
2023-07-18T10:56:01.016Z,91144.03
2023-07-18T10:58:45.938Z,91149.00
2023-07-18T11:01:30.784Z,91143.31
2023-07-18T11:04:15.658Z,91131.34
2023-07-18T11:07:00.512Z,91138.91
2023-07-18T11:09:45.456Z,91131.09
2023-07-18T11:12:30.570Z,91123.97
2023-07-18T11:15:15.421Z,91126.25
2023-07-18T11:18:00.422Z,91113.84
2023-07-18T11:20:46.333Z,91114.28
2023-07-18T11:23:31.140Z,91112.84
2023-07-18T11:26:16.025Z,91118.72
2023-07-18T11:29:01.018Z,91112.41
2023-07-18T11:31:46.414Z,91100.53
2023-07-18T11:34:31.408Z,91088.53
2023-07-18T11:37:16.348Z,91086.81
2023-07-18T11:40:01.160Z,91098.00
2023-07-18T11:42:46.047Z,91097.47
2023-07-18T11:45:30.961Z,91092.69
2023-07-18T11:48:16.018Z,91077.47
2023-07-18T11:51:00.654Z,91085.72
2023-07-18T11:53:45.728Z,91083.44
2023-07-18T11:56:30.557Z,91094.91
2023-07-18T11:59:15.368Z,91089.88
2023-07-18T12:02:00.372Z,91075.34
2023-07-18T12:04:45.171Z,91084.88
2023-07-18T12:07:30.200Z,91087.31
2023-07-18T12:10:15.005Z,91078.16
2023-07-18T12:13:00.008Z,91088.84
2023-07-18T12:15:44.887Z,91117.00
2023-07-18T12:18:29.779Z,91108.38
2023-07-18T12:21:15.888Z,91130.50
2023-07-18T12:24:00.939Z,91146.00
2023-07-18T12:26:45.856Z,91147.97
2023-07-18T12:29:30.658Z,91119.00
2023-07-18T12:32:18.631Z,91112.97
2023-07-18T12:35:03.399Z,91096.53
2023-07-18T12:37:48.230Z,91083.88
2023-07-18T12:40:33.166Z,91068.22
2023-07-18T12:43:17.996Z,91079.72
2023-07-18T12:46:02.979Z,91082.09
2023-07-18T12:48:50.922Z,91098.81
2023-07-18T12:51:35.821Z,91118.97
2023-07-18T12:54:20.894Z,91151.84
2023-07-18T12:57:05.804Z,91189.84
2023-07-18T12:59:50.846Z,91175.16
2023-07-18T13:02:35.795Z,91165.78
2023-07-18T13:05:20.450Z,91160.56
2023-07-18T13:08:05.340Z,91128.63
2023-07-18T13:10:50.290Z,91103.53
2023-07-18T13:13:35.195Z,91095.28
2023-07-18T13:16:20.068Z,91099.47
2023-07-18T13:19:05.265Z,91087.88
2023-07-18T13:21:50.234Z,91106.34
2023-07-18T13:24:35.228Z,91106.28
2023-07-18T13:27:20.080Z,91104.88
2023-07-18T13:30:04.801Z,91105.44
2023-07-18T13:32:49.704Z,91123.41
2023-07-18T13:35:34.506Z,91121.72
2023-07-18T13:38:19.453Z,91125.56
2023-07-18T13:41:04.522Z,91117.31
2023-07-18T13:43:49.228Z,91117.44
2023-07-18T13:46:34.114Z,91108.34
2023-07-18T13:49:19.035Z,91107.53
2023-07-18T13:52:03.875Z,91100.47
2023-07-18T13:54:48.629Z,91094.00
2023-07-18T13:57:33.464Z,91099.44
2023-07-18T14:00:18.408Z,91104.91
2023-07-18T14:03:03.383Z,91098.94
2023-07-18T14:05:48.273Z,91102.47
2023-07-18T14:08:33.134Z,91097.66
2023-07-18T14:11:17.868Z,91082.47
2023-07-18T14:14:02.774Z,91081.88
2023-07-18T14:16:47.785Z,91079.03
2023-07-18T14:19:32.573Z,91082.78
2023-07-18T14:22:17.368Z,91076.09
2023-07-18T14:25:02.292Z,91059.97
2023-07-18T14:27:47.149Z,91053.22
2023-07-18T14:30:32.042Z,91041.16
2023-07-18T14:33:16.992Z,91048.91
2023-07-18T14:36:01.710Z,91051.75
2023-07-18T14:38:47.577Z,91040.03
2023-07-18T14:41:32.452Z,91045.97
2023-07-18T14:44:17.256Z,91048.22
2023-07-18T14:47:02.004Z,91057.75
2023-07-18T14:49:46.903Z,91055.78
2023-07-18T14:52:31.679Z,91060.16
2023-07-18T14:55:16.682Z,91054.22
2023-07-18T14:58:01.277Z,91048.31
2023-07-18T15:00:46.069Z,91043.72
2023-07-18T15:03:31.095Z,91038.47
2023-07-18T15:06:15.944Z,91054.13
2023-07-18T15:09:00.823Z,91066.41
2023-07-18T15:11:45.628Z,91061.59
2023-07-18T15:14:30.638Z,91034.72
2023-07-18T15:17:15.369Z,91029.34
2023-07-18T15:20:00.251Z,91022.03
2023-07-18T15:22:45.222Z,91036.31
2023-07-18T15:25:30.084Z,91061.44
2023-07-18T15:28:14.897Z,91105.81
2023-07-18T15:30:59.849Z,91112.03
2023-07-18T15:33:44.616Z,91082.50
2023-07-18T15:36:29.356Z,91066.13
2023-07-18T15:39:14.348Z,91032.84
2023-07-18T15:41:59.200Z,91029.81
2023-07-18T15:44:44.051Z,91045.84
2023-07-18T15:47:28.981Z,91053.41
2023-07-18T15:50:13.824Z,91065.72
2023-07-18T15:52:58.748Z,91059.09
2023-07-18T15:55:44.003Z,91055.00
2023-07-18T15:58:29.006Z,91061.78
2023-07-18T16:01:13.985Z,91066.13
2023-07-18T16:03:58.976Z,91076.41
2023-07-18T16:06:43.613Z,91102.88
2023-07-18T16:09:28.480Z,91133.50
2023-07-18T16:12:13.546Z,91132.28
2023-07-18T16:14:58.413Z,91127.94
2023-07-18T16:17:43.347Z,91138.66
2023-07-18T16:20:28.153Z,91122.19
2023-07-18T16:23:13.115Z,91118.56
2023-07-18T16:25:57.824Z,91117.56
2023-07-18T16:28:42.625Z,91112.75
2023-07-18T16:31:27.673Z,91124.53
2023-07-18T16:34:12.440Z,91095.22
2023-07-18T16:36:57.375Z,91077.91
2023-07-18T16:39:42.245Z,91098.53
2023-07-18T16:42:27.225Z,91082.63
2023-07-18T16:45:12.091Z,91071.34
2023-07-18T16:47:57.020Z,91083.25
2023-07-18T16:50:41.774Z,91095.53
2023-07-18T16:53:26.682Z,91068.25
2023-07-18T16:56:11.555Z,91051.31
2023-07-18T16:58:56.460Z,91052.72
2023-07-18T17:01:41.333Z,91069.84
2023-07-18T17:04:26.331Z,91112.66
2023-07-18T17:07:11.246Z,91120.22
2023-07-18T17:09:56.113Z,91103.66
2023-07-18T17:12:41.081Z,91082.25
2023-07-18T17:15:25.833Z,91073.66
2023-07-18T17:18:10.730Z,91039.72
2023-07-18T17:20:55.570Z,91064.13
2023-07-18T17:23:40.380Z,91074.00
2023-07-18T17:26:25.361Z,91070.53
2023-07-18T17:29:10.155Z,91062.84
2023-07-18T17:31:55.044Z,91065.41
2023-07-18T17:34:39.921Z,91074.31
2023-07-18T17:37:24.965Z,91089.97
2023-07-18T17:40:09.829Z,91086.22
2023-07-18T17:42:54.967Z,91081.66
2023-07-18T17:45:39.883Z,91070.25
2023-07-18T17:48:24.906Z,91067.53
2023-07-18T17:51:09.842Z,91064.53
2023-07-18T17:53:56.529Z,91064.25
2023-07-18T17:56:41.704Z,91079.75
2023-07-18T17:59:26.508Z,91073.56
2023-07-18T18:02:11.473Z,91087.28
2023-07-18T18:04:56.349Z,91085.69
2023-07-18T18:07:41.366Z,91077.88
2023-07-18T18:10:26.253Z,91078.81
2023-07-18T18:13:11.073Z,91079.56
2023-07-18T18:16:07.348Z,91083.84
2023-07-18T18:18:53.488Z,91094.13
2023-07-18T18:21:38.380Z,91108.78
2023-07-18T18:24:23.180Z,91112.75
2023-07-18T18:27:07.975Z,91112.31
2023-07-18T18:29:52.735Z,91100.09
2023-07-18T18:32:37.602Z,91074.38
2023-07-18T18:35:22.425Z,91070.81
2023-07-18T18:38:07.308Z,91065.50
2023-07-18T18:40:52.162Z,91088.53
2023-07-18T18:43:37.091Z,91093.16
2023-07-18T18:46:22.039Z,91074.94
2023-07-18T18:49:10.048Z,91080.41
2023-07-18T18:51:58.346Z,91090.03
2023-07-18T18:54:43.361Z,91103.72
2023-07-18T18:57:28.249Z,91105.28
2023-07-18T19:00:13.188Z,91092.31
2023-07-18T19:02:58.305Z,91094.81
2023-07-18T19:05:43.501Z,91088.94
2023-07-18T19:08:28.310Z,91080.63
2023-07-18T19:11:13.168Z,91122.41
2023-07-18T19:13:58.087Z,91072.09
2023-07-18T19:16:43.064Z,91063.13
2023-07-18T19:19:28.101Z,91072.53
2023-07-18T19:22:12.939Z,91062.66
2023-07-18T19:24:57.810Z,91051.97
2023-07-18T19:27:42.617Z,91046.22
2023-07-18T19:30:27.466Z,91086.50
2023-07-18T19:33:12.386Z,91101.81
2023-07-18T19:35:57.170Z,91088.78
2023-07-18T19:38:42.053Z,91074.16
2023-07-18T19:41:27.013Z,91067.75
2023-07-18T19:44:11.954Z,91099.09
2023-07-18T19:46:56.758Z,91091.13
2023-07-18T19:49:41.670Z,91113.72
2023-07-18T19:52:26.331Z,91130.41
2023-07-18T19:55:11.240Z,91132.16
2023-07-18T19:57:55.990Z,91124.94
2023-07-18T20:00:41.031Z,91144.25
2023-07-18T20:03:26.031Z,91097.09
2023-07-18T20:06:10.858Z,91063.59
2023-07-18T20:08:55.861Z,91041.50
2023-07-18T20:11:40.736Z,91072.59
2023-07-18T20:14:25.701Z,91103.97
2023-07-18T20:17:10.496Z,91141.34
2023-07-18T20:19:55.442Z,91165.72
2023-07-18T20:22:40.288Z,91183.19
2023-07-18T20:25:25.156Z,91202.47
2023-07-18T20:28:09.952Z,91221.75
2023-07-18T20:30:54.940Z,91201.38
2023-07-18T20:33:41.775Z,91205.13
2023-07-18T20:36:27.732Z,91209.06
2023-07-18T20:39:12.610Z,91174.47
2023-07-18T20:41:57.385Z,91158.69
2023-07-18T20:44:42.199Z,91185.50
2023-07-18T20:47:27.093Z,91235.06
2023-07-18T20:50:11.823Z,91234.66
2023-07-18T20:52:56.749Z,91216.09
2023-07-18T20:55:41.744Z,91197.94
2023-07-18T20:58:26.630Z,91199.50
